createdAt,value
2018-09-17T00:01:34.651Z,17.77
2018-09-17T00:04:03.153Z,17.79
2018-09-17T00:06:31.715Z,17.80
2018-09-17T00:09:01.503Z,17.83
2018-09-17T00:11:30.320Z,17.81
2018-09-17T00:14:00.015Z,17.78
2018-09-17T00:16:29.089Z,17.79
2018-09-17T00:18:58.163Z,17.73
2018-09-17T00:21:26.697Z,17.74
2018-09-17T00:23:57.648Z,17.70
2018-09-17T00:26:26.642Z,17.64
2018-09-17T00:28:55.209Z,17.56
2018-09-17T00:31:24.123Z,17.53
2018-09-17T00:33:53.346Z,17.52
2018-09-17T00:36:21.959Z,17.51
2018-09-17T00:38:50.976Z,17.48
2018-09-17T00:41:20.732Z,17.45
2018-09-17T00:43:49.275Z,17.44
2018-09-17T00:46:17.922Z,17.37
2018-09-17T00:48:46.553Z,17.26
2018-09-17T00:51:16.438Z,17.29
2018-09-17T00:53:44.919Z,17.26
2018-09-17T00:56:13.485Z,17.13
2018-09-17T00:58:42.042Z,17.03
2018-09-17T01:01:10.699Z,16.95
2018-09-17T01:03:39.590Z,16.88
2018-09-17T01:06:10.453Z,16.78
2018-09-17T01:08:40.117Z,16.75
2018-09-17T01:11:10.010Z,16.74
2018-09-17T01:13:39.014Z,16.66
2018-09-17T01:16:08.995Z,16.57
2018-09-17T01:18:38.184Z,16.47
2018-09-17T01:21:07.744Z,16.44
2018-09-17T01:23:36.436Z,16.40
2018-09-17T01:26:06.710Z,16.40
2018-09-17T01:28:37.136Z,16.38
2018-09-17T01:31:07.472Z,16.32
2018-09-17T01:33:37.284Z,16.26
2018-09-17T01:36:05.781Z,16.26
2018-09-17T01:38:34.584Z,16.28
2018-09-17T01:41:03.418Z,16.33
2018-09-17T01:43:33.178Z,16.37
2018-09-17T01:46:02.794Z,16.38
2018-09-17T01:48:33.166Z,16.38
2018-09-17T01:51:02.157Z,16.44
2018-09-17T01:53:30.787Z,16.44
2018-09-17T01:56:00.022Z,16.38
2018-09-17T01:58:30.400Z,16.36
2018-09-17T02:00:59.908Z,16.36
2018-09-17T02:03:28.820Z,16.43
2018-09-17T02:05:57.547Z,16.43
2018-09-17T02:08:26.441Z,16.46
2018-09-17T02:10:55.002Z,16.51
2018-09-17T02:13:23.617Z,16.56
2018-09-17T02:15:52.243Z,16.58
2018-09-17T02:18:20.752Z,16.55
2018-09-17T02:20:49.245Z,16.47
2018-09-17T02:23:17.784Z,16.40
2018-09-17T02:25:46.342Z,16.36
2018-09-17T02:28:14.850Z,16.28
2018-09-17T02:30:43.629Z,16.30
2018-09-17T02:33:12.127Z,16.30
2018-09-17T02:35:40.652Z,16.27
2018-09-17T02:38:09.214Z,16.23
2018-09-17T02:40:38.282Z,16.12
2018-09-17T02:43:07.797Z,16.02
2018-09-17T02:45:36.680Z,15.98
2018-09-17T02:48:05.364Z,15.98
2018-09-17T02:50:34.147Z,16.01
2018-09-17T02:53:02.759Z,16.11
2018-09-17T02:55:32.197Z,16.16
2018-09-17T02:58:00.736Z,16.16
2018-09-17T03:00:29.308Z,16.13
2018-09-17T03:02:58.237Z,16.12
2018-09-17T03:05:26.738Z,16.07
2018-09-17T03:07:55.368Z,15.94
2018-09-17T03:10:24.376Z,15.88
2018-09-17T03:12:52.977Z,15.79
2018-09-17T03:15:32.633Z,15.66
2018-09-17T03:18:01.127Z,15.54
2018-09-17T03:20:29.660Z,15.46
2018-09-17T03:22:58.288Z,15.46
2018-09-17T03:25:26.784Z,15.44
2018-09-17T03:27:55.319Z,15.46
2018-09-17T03:30:23.974Z,15.42
2018-09-17T03:32:52.420Z,15.38
2018-09-17T03:35:20.979Z,15.40
2018-09-17T03:37:49.949Z,15.43
2018-09-17T03:40:18.744Z,15.43
2018-09-17T03:42:47.615Z,15.46
2018-09-17T03:45:16.250Z,15.48
2018-09-17T03:47:46.316Z,15.43
2018-09-17T03:50:15.018Z,15.49
2018-09-17T03:52:44.205Z,15.50
2018-09-17T03:55:13.148Z,15.53
2018-09-17T03:57:41.940Z,15.54
2018-09-17T04:00:11.096Z,15.55
2018-09-17T04:02:39.882Z,15.53
2018-09-17T04:05:08.604Z,15.53
2018-09-17T04:07:37.890Z,15.51
2018-09-17T04:10:06.716Z,15.54
2018-09-17T04:12:35.680Z,15.59
2018-09-17T04:15:04.588Z,15.61
2018-09-17T04:17:33.345Z,15.59
2018-09-17T04:20:02.593Z,15.50
2018-09-17T04:22:31.664Z,15.48
2018-09-17T04:25:01.666Z,15.50
2018-09-17T04:27:30.934Z,15.50
2018-09-17T04:29:59.787Z,15.42
2018-09-17T04:32:38.012Z,15.40
2018-09-17T04:35:07.815Z,15.31
2018-09-17T04:37:38.255Z,15.30
2018-09-17T04:40:08.558Z,15.38
2018-09-17T04:42:38.719Z,15.45
2018-09-17T04:45:07.711Z,15.49
2018-09-17T04:47:36.667Z,15.35
2018-09-17T04:50:05.420Z,15.21
2018-09-17T04:52:39.164Z,15.17
2018-09-17T04:55:10.420Z,15.04
2018-09-17T04:57:39.294Z,14.88
2018-09-17T05:00:08.662Z,14.79
2018-09-17T05:02:37.632Z,14.80
2018-09-17T05:05:06.845Z,14.70
2018-09-17T05:07:35.843Z,14.65
2018-09-17T05:10:04.490Z,14.57
2018-09-17T05:12:33.274Z,14.48
2018-09-17T05:15:02.596Z,14.38
2018-09-17T05:17:32.259Z,14.46
2018-09-17T05:20:01.326Z,14.51
2018-09-17T05:22:39.530Z,14.60
2018-09-17T05:25:08.598Z,14.62
2018-09-17T05:27:37.520Z,14.67
2018-09-17T05:30:06.200Z,14.87
2018-09-17T05:32:34.975Z,14.93
2018-09-17T05:35:03.715Z,14.98
2018-09-17T05:37:32.636Z,14.95
2018-09-17T05:40:01.531Z,14.97
2018-09-17T05:42:30.865Z,14.97
2018-09-17T05:44:59.637Z,14.93
2018-09-17T05:47:28.428Z,14.90
2018-09-17T05:49:57.288Z,14.94
2018-09-17T05:52:26.277Z,14.87
2018-09-17T05:54:55.940Z,14.93
2018-09-17T05:57:24.612Z,15.07
2018-09-17T05:59:53.658Z,15.10
2018-09-17T06:02:22.442Z,15.06
2018-09-17T06:04:51.483Z,15.06
2018-09-17T06:07:20.174Z,15.12
2018-09-17T06:09:49.958Z,15.13
2018-09-17T06:12:18.690Z,15.14
2018-09-17T06:14:47.450Z,15.20
2018-09-17T06:17:16.337Z,15.24
2018-09-17T06:19:45.458Z,15.33
2018-09-17T06:22:14.269Z,15.34
2018-09-17T06:24:42.856Z,15.40
2018-09-17T06:27:11.704Z,15.46
2018-09-17T06:29:40.607Z,15.49
2018-09-17T06:32:09.220Z,15.49
2018-09-17T06:34:37.862Z,15.45
2018-09-17T06:37:06.872Z,15.45
2018-09-17T06:39:36.051Z,15.47
2018-09-17T06:42:04.637Z,15.54
2018-09-17T06:44:33.378Z,15.63
2018-09-17T06:47:02.106Z,15.68
2018-09-17T06:49:30.796Z,15.71
2018-09-17T06:52:04.528Z,15.71
2018-09-17T06:54:34.213Z,15.81
2018-09-17T06:57:03.822Z,15.91
2018-09-17T06:59:33.108Z,16.01
2018-09-17T07:02:01.794Z,16.05
2018-09-17T07:04:30.502Z,16.06
2018-09-17T07:06:59.177Z,16.11
2018-09-17T07:09:27.946Z,16.18
2018-09-17T07:11:56.659Z,16.21
2018-09-17T07:14:25.514Z,16.29
2018-09-17T07:16:54.642Z,16.42
2018-09-17T07:19:23.458Z,16.50
2018-09-17T07:21:59.108Z,16.57
2018-09-17T07:24:41.858Z,16.62
2018-09-17T07:27:10.530Z,16.70
2018-09-17T07:29:38.983Z,16.78
2018-09-17T07:32:07.980Z,16.87
2018-09-17T07:34:36.982Z,16.94
2018-09-17T07:37:05.639Z,17.02
2018-09-17T07:39:34.330Z,17.09
2018-09-17T07:42:03.085Z,17.19
2018-09-17T07:44:32.020Z,17.24
2018-09-17T07:47:00.752Z,17.35
2018-09-17T07:49:29.518Z,17.46
2018-09-17T07:51:58.242Z,17.52
2018-09-17T07:54:28.351Z,17.56
2018-09-17T07:56:56.991Z,17.65
2018-09-17T07:59:25.614Z,17.70
2018-09-17T08:01:56.189Z,17.76
2018-09-17T08:07:09.020Z,17.93
2018-09-17T08:09:38.312Z,18.04
2018-09-17T08:12:07.107Z,18.16
2018-09-17T08:14:35.821Z,18.27
2018-09-17T08:17:05.041Z,18.43
2018-09-17T08:19:33.637Z,18.53
2018-09-17T08:22:02.361Z,18.69
2018-09-17T08:24:31.963Z,18.86
2018-09-17T08:27:00.541Z,18.95
2018-09-17T08:29:29.126Z,19.08
2018-09-17T08:31:58.167Z,19.12
2018-09-17T08:34:26.702Z,19.26
2018-09-17T08:36:55.360Z,19.35
2018-09-17T08:39:23.947Z,19.49
2018-09-17T08:41:52.533Z,19.64
2018-09-17T08:44:21.111Z,19.81
2018-09-17T08:46:49.661Z,20.01
2018-09-17T08:49:18.236Z,20.15
2018-09-17T08:51:46.898Z,20.26
2018-09-17T08:54:15.571Z,20.43
2018-09-17T08:56:50.224Z,20.64
2018-09-17T08:59:24.235Z,20.79
2018-09-17T09:01:57.912Z,20.87
2018-09-17T09:04:26.621Z,21.07
2018-09-17T09:06:55.439Z,21.31
2018-09-17T09:09:24.276Z,21.42
2018-09-17T09:11:56.993Z,21.55
2018-09-17T09:14:42.943Z,21.70
2018-09-17T09:17:12.289Z,21.93
2018-09-17T09:19:41.061Z,22.08
2018-09-17T09:22:09.793Z,22.35
2018-09-17T09:24:39.238Z,22.49
2018-09-17T09:27:10.898Z,22.61
2018-09-17T09:29:40.603Z,22.86
2018-09-17T09:32:09.803Z,22.94
2018-09-17T09:34:39.096Z,23.26
2018-09-17T09:37:08.045Z,23.55
2018-09-17T09:39:37.383Z,23.65
2018-09-17T09:42:06.088Z,23.87
2018-09-17T09:44:35.363Z,23.95
2018-09-17T09:47:04.953Z,24.05
2018-09-17T09:49:33.715Z,24.11
2018-09-17T09:52:07.919Z,24.14
2018-09-17T09:54:36.962Z,24.18
2018-09-17T09:57:05.729Z,24.18
2018-09-17T09:59:34.995Z,24.24
2018-09-17T10:02:08.767Z,24.23
2018-09-17T10:04:37.551Z,24.04
2018-09-17T10:07:06.427Z,23.96
2018-09-17T10:09:40.249Z,23.92
2018-09-17T10:12:15.639Z,23.94
2018-09-17T10:14:49.715Z,23.99
2018-09-17T10:17:23.623Z,24.08
2018-09-17T10:19:53.390Z,24.30
2018-09-17T10:22:22.140Z,24.73
2018-09-17T10:24:50.922Z,24.89
2018-09-17T10:27:19.680Z,25.06
2018-09-17T10:29:48.427Z,25.34
2018-09-17T10:32:17.347Z,25.88
2018-09-17T10:34:46.119Z,26.41
2018-09-17T10:37:14.741Z,26.91
2018-09-17T10:39:43.656Z,27.30
2018-09-17T10:42:25.989Z,27.47
2018-09-17T10:44:55.435Z,27.54
2018-09-17T10:47:25.894Z,27.51
2018-09-17T10:49:54.832Z,27.36
2018-09-17T10:52:23.563Z,26.96
2018-09-17T10:54:52.139Z,26.57
2018-09-17T10:57:20.641Z,26.14
2018-09-17T10:59:49.537Z,25.71
2018-09-17T11:02:18.441Z,25.39
2018-09-17T11:04:47.841Z,25.14
2018-09-17T11:07:16.529Z,24.96
2018-09-17T11:09:46.013Z,24.82
2018-09-17T11:12:14.718Z,24.52
2018-09-17T11:14:43.326Z,24.56
2018-09-17T11:17:11.994Z,24.48
2018-09-17T11:19:40.667Z,24.56
2018-09-17T11:22:09.471Z,24.79
2018-09-17T11:24:38.055Z,25.11
2018-09-17T11:27:06.830Z,25.47
2018-09-17T11:29:35.536Z,25.87
2018-09-17T11:32:04.471Z,26.38
2018-09-17T11:34:33.059Z,26.74
2018-09-17T11:37:01.587Z,27.21
2018-09-17T11:39:30.165Z,27.52
2018-09-17T11:41:59.011Z,28.20
2018-09-17T11:44:27.659Z,28.65
2018-09-17T11:46:56.465Z,29.15
2018-09-17T11:49:25.391Z,29.67
2018-09-17T11:51:54.267Z,29.76
2018-09-17T11:54:23.071Z,30.05
2018-09-17T11:56:51.893Z,30.32
2018-09-17T11:59:20.572Z,30.37
2018-09-17T12:01:55.603Z,30.49
2018-09-17T12:04:29.853Z,30.79
2018-09-17T12:07:03.847Z,30.94
2018-09-17T12:09:32.481Z,31.06
2018-09-17T12:12:01.327Z,30.99
2018-09-17T12:14:30.024Z,31.23
2018-09-17T12:16:58.959Z,31.29
2018-09-17T12:19:27.940Z,31.27
2018-09-17T12:21:56.493Z,31.25
2018-09-17T12:24:27.644Z,31.42
2018-09-17T12:26:56.514Z,31.43
2018-09-17T12:29:25.916Z,31.33
2018-09-17T12:31:54.582Z,31.37
2018-09-17T12:34:23.237Z,31.56
2018-09-17T12:36:51.853Z,31.63
2018-09-17T12:39:20.678Z,31.54
2018-09-17T12:41:50.334Z,31.54
2018-09-17T12:44:19.531Z,31.44
2018-09-17T12:46:48.212Z,31.56
2018-09-17T12:49:16.957Z,31.53
2018-09-17T12:51:46.560Z,31.61
2018-09-17T12:54:17.914Z,31.91
2018-09-17T12:56:47.153Z,32.25
2018-09-17T12:59:23.431Z,32.57
2018-09-17T13:01:54.201Z,32.74
2018-09-17T13:04:22.725Z,32.86
2018-09-17T13:06:51.316Z,33.00
2018-09-17T13:09:21.923Z,32.94
2018-09-17T13:11:51.007Z,33.39
2018-09-17T13:14:19.681Z,33.54
2018-09-17T13:16:49.030Z,33.54
2018-09-17T13:19:18.534Z,33.33
2018-09-17T13:21:47.342Z,33.38
2018-09-17T13:24:15.965Z,33.08
2018-09-17T13:26:44.734Z,32.93
2018-09-17T13:29:13.577Z,32.71
2018-09-17T13:31:42.248Z,32.13
2018-09-17T13:34:10.813Z,31.58
2018-09-17T13:36:39.439Z,31.09
2018-09-17T13:39:09.177Z,30.54
2018-09-17T13:41:37.833Z,29.99
2018-09-17T13:44:08.861Z,29.66
2018-09-17T13:46:37.522Z,29.48
2018-09-17T13:49:06.246Z,29.40
2018-09-17T13:51:39.960Z,29.34
2018-09-17T13:54:08.900Z,29.23
2018-09-17T13:56:37.871Z,29.08
2018-09-17T13:59:08.335Z,28.94
2018-09-17T14:01:36.993Z,28.70
2018-09-17T14:04:05.622Z,28.55
2018-09-17T14:06:34.264Z,28.46
2018-09-17T14:09:03.401Z,28.28
2018-09-17T14:11:37.235Z,28.21
2018-09-17T14:14:06.038Z,28.10
2018-09-17T14:16:36.500Z,28.12
2018-09-17T14:19:05.469Z,28.12
2018-09-17T14:21:35.781Z,28.11
2018-09-17T14:24:08.803Z,28.01
2018-09-17T14:26:38.258Z,28.03
2018-09-17T14:29:06.877Z,27.88
2018-09-17T14:32:41.349Z,27.72
2018-09-17T14:35:09.197Z,27.48
2018-09-17T14:37:36.926Z,27.38
2018-09-17T14:40:05.141Z,27.31
2018-09-17T14:42:38.578Z,27.11
2018-09-17T14:45:06.697Z,26.98
2018-09-17T14:47:35.425Z,26.90
2018-09-17T14:50:04.465Z,26.83
2018-09-17T14:52:34.475Z,26.79
2018-09-17T14:55:03.953Z,26.76
2018-09-17T14:57:31.708Z,26.66
2018-09-17T14:59:59.489Z,26.57
2018-09-17T15:02:27.279Z,26.51
2018-09-17T15:04:55.239Z,26.46
2018-09-17T15:07:23.285Z,26.40
2018-09-17T15:09:51.113Z,26.36
2018-09-17T15:12:19.270Z,26.30
2018-09-17T15:14:47.075Z,26.27
2018-09-17T15:17:15.234Z,26.19
2018-09-17T15:19:43.163Z,26.18
2018-09-17T15:22:11.132Z,26.14
2018-09-17T15:24:38.997Z,26.08
2018-09-17T15:27:07.918Z,26.03
2018-09-17T15:29:35.614Z,25.98
2018-09-17T15:32:04.057Z,25.95
2018-09-17T15:34:31.873Z,25.91
2018-09-17T15:36:59.674Z,25.87
2018-09-17T15:39:27.420Z,25.86
2018-09-17T15:41:55.127Z,25.85
2018-09-17T15:44:24.391Z,25.85
2018-09-17T15:46:53.518Z,25.87
2018-09-17T15:49:21.967Z,25.84
2018-09-17T15:51:50.654Z,25.83
2018-09-17T15:54:19.170Z,25.81
2018-09-17T15:56:47.760Z,25.78
2018-09-17T15:59:16.253Z,25.71
2018-09-17T16:01:44.983Z,25.69
2018-09-17T16:04:13.572Z,25.70
2018-09-17T16:06:42.563Z,25.69
2018-09-17T16:09:11.173Z,25.67
2018-09-17T16:11:39.752Z,25.66
2018-09-17T16:14:08.396Z,25.65
2018-09-17T16:16:37.080Z,25.59
2018-09-17T16:19:05.853Z,25.55
2018-09-17T16:21:34.497Z,25.54
2018-09-17T16:24:03.188Z,25.50
2018-09-17T16:26:31.775Z,25.47
2018-09-17T16:29:00.743Z,25.44
2018-09-17T16:31:29.548Z,25.39
2018-09-17T16:33:58.219Z,25.35
2018-09-17T16:36:27.303Z,25.31
2018-09-17T16:38:56.134Z,25.26
2018-09-17T16:41:24.904Z,25.21
2018-09-17T16:43:53.677Z,25.20
2018-09-17T16:46:22.328Z,25.20
2018-09-17T16:48:50.936Z,25.17
2018-09-17T16:51:19.480Z,25.13
2018-09-17T16:53:48.254Z,25.08
2018-09-17T16:56:16.858Z,25.06
2018-09-17T16:58:45.440Z,25.00
2018-09-17T17:01:14.665Z,25.00
2018-09-17T17:03:43.196Z,24.98
2018-09-17T17:06:11.816Z,24.95
2018-09-17T17:08:40.722Z,24.90
2018-09-17T17:11:09.666Z,24.86
2018-09-17T17:13:38.225Z,24.81
2018-09-17T17:16:06.925Z,24.79
2018-09-17T17:18:35.611Z,24.72
2018-09-17T17:21:04.273Z,24.69
2018-09-17T17:23:33.050Z,24.64
2018-09-17T17:26:01.642Z,24.59
2018-09-17T17:28:30.139Z,24.56
2018-09-17T17:30:59.042Z,24.50
2018-09-17T17:33:27.734Z,24.43
2018-09-17T17:35:56.537Z,24.38
2018-09-17T17:38:25.149Z,24.30
2018-09-17T17:41:07.306Z,24.26
2018-09-17T17:43:36.020Z,24.20
2018-09-17T17:46:04.788Z,24.13
2018-09-17T17:48:33.469Z,24.03
2018-09-17T17:51:02.115Z,24.00
2018-09-17T17:53:30.916Z,23.93
2018-09-17T17:55:59.607Z,23.89
2018-09-17T17:58:27.524Z,23.81
2018-09-17T18:00:55.588Z,23.78
2018-09-17T18:03:24.267Z,23.74
2018-09-17T18:05:53.142Z,23.69
2018-09-17T18:08:21.698Z,23.64
2018-09-17T18:10:55.324Z,23.59
2018-09-17T18:13:24.011Z,23.55
2018-09-17T18:15:52.769Z,23.51
2018-09-17T18:18:21.691Z,23.48
2018-09-17T18:20:59.704Z,23.42
2018-09-17T18:23:28.379Z,23.39
2018-09-17T18:25:56.285Z,23.34
2018-09-17T18:28:24.359Z,23.32
2018-09-17T18:30:52.600Z,23.27
2018-09-17T18:33:21.456Z,23.27
2018-09-17T18:35:50.242Z,23.21
2018-09-17T18:38:19.587Z,23.17
2018-09-17T18:40:53.908Z,23.12
2018-09-17T18:43:23.152Z,23.12
2018-09-17T18:45:51.841Z,23.07
2018-09-17T18:48:20.725Z,23.07
2018-09-17T18:50:49.414Z,23.05
2018-09-17T18:53:18.507Z,23.03
2018-09-17T18:55:47.301Z,23.02
2018-09-17T18:58:16.345Z,23.00
2018-09-17T19:00:45.199Z,22.98
2018-09-17T19:03:13.963Z,22.95
2018-09-17T19:05:42.818Z,22.95
2018-09-17T19:08:11.552Z,22.93
2018-09-17T19:10:41.318Z,22.90
2018-09-17T19:13:10.307Z,22.84
2018-09-17T19:15:44.223Z,22.81
2018-09-17T19:18:17.757Z,22.84
2018-09-17T19:20:47.761Z,22.86
2018-09-17T19:23:21.204Z,22.93
2018-09-17T19:25:50.246Z,22.98
2018-09-17T19:28:24.149Z,23.05
2018-09-17T19:33:48.182Z,23.13
2018-09-17T19:36:23.038Z,23.10
2018-09-17T19:38:57.775Z,23.12
2018-09-17T19:41:28.980Z,23.15
2018-09-17T19:43:58.267Z,23.17
2018-09-17T19:46:26.982Z,23.16
2018-09-17T19:48:55.671Z,23.14
2018-09-17T19:51:29.506Z,23.11
2018-09-17T19:53:58.673Z,23.10
2018-09-17T19:56:27.787Z,23.13
2018-09-17T19:59:01.860Z,23.15
2018-09-17T20:01:37.127Z,23.16
2018-09-17T20:04:13.431Z,23.25
2018-09-17T20:06:42.570Z,23.29
2018-09-17T20:09:14.545Z,23.32
2018-09-17T20:11:45.576Z,23.31
2018-09-17T20:14:14.733Z,23.33
2018-09-17T20:16:43.513Z,23.30
2018-09-17T20:19:12.191Z,23.26
2018-09-17T20:21:41.127Z,23.15
2018-09-17T20:24:09.747Z,23.12
2018-09-17T20:26:38.413Z,23.13
2018-09-17T20:29:07.125Z,23.16
2018-09-17T20:31:35.871Z,23.08
2018-09-17T20:34:04.727Z,23.07
2018-09-17T20:36:33.624Z,23.03
2018-09-17T20:39:02.163Z,22.92
2018-09-17T20:41:30.922Z,22.84
2018-09-17T20:43:59.600Z,22.75
2018-09-17T20:46:28.140Z,22.68
2018-09-17T20:48:56.914Z,22.64
2018-09-17T20:51:25.585Z,22.61
2018-09-17T20:53:54.476Z,22.57
2018-09-17T20:56:22.883Z,22.50
2018-09-17T20:58:51.540Z,22.44
2018-09-17T21:01:20.247Z,22.37
2018-09-17T21:03:49.049Z,22.31
2018-09-17T21:06:17.861Z,22.31
2018-09-17T21:08:46.471Z,22.23
2018-09-17T21:11:15.000Z,22.19
2018-09-17T21:13:43.581Z,22.18
2018-09-17T21:16:12.409Z,22.15
2018-09-17T21:18:48.980Z,22.09
2018-09-17T21:21:17.715Z,22.07
2018-09-17T21:23:46.188Z,21.99
2018-09-17T21:26:14.793Z,21.92
2018-09-17T21:28:43.320Z,21.92
2018-09-17T21:31:11.846Z,21.83
2018-09-17T21:33:40.416Z,21.78
2018-09-17T21:36:09.229Z,21.68
2018-09-17T21:38:37.825Z,21.65
2018-09-17T21:41:06.575Z,21.63
2018-09-17T21:43:35.062Z,21.63
2018-09-17T21:46:03.751Z,21.54
2018-09-17T21:48:32.399Z,21.47
2018-09-17T21:51:01.235Z,21.50
2018-09-17T21:53:29.830Z,21.50
2018-09-17T21:55:58.519Z,21.46
2018-09-17T21:58:27.179Z,21.46
2018-09-17T22:01:02.065Z,21.49
2018-09-17T22:03:32.622Z,21.49
2018-09-17T22:06:01.659Z,21.49
2018-09-17T22:08:30.908Z,21.53
2018-09-17T22:10:59.591Z,21.52
2018-09-17T22:13:28.644Z,21.44
2018-09-17T22:15:57.492Z,21.40
2018-09-17T22:18:26.162Z,21.40
2018-09-17T22:20:54.842Z,21.34
2018-09-17T22:23:23.449Z,21.27
2018-09-17T22:25:52.023Z,21.21
2018-09-17T22:28:20.502Z,21.16
2018-09-17T22:30:49.441Z,21.10
2018-09-17T22:33:17.989Z,21.08
2018-09-17T22:35:46.544Z,21.03
2018-09-17T22:38:15.048Z,20.97
2018-09-17T22:40:43.529Z,20.92
2018-09-17T22:43:12.125Z,20.88
2018-09-17T22:45:40.799Z,20.86
2018-09-17T22:48:09.320Z,20.84
2018-09-17T22:50:37.912Z,20.84
2018-09-17T22:53:06.532Z,20.83
2018-09-17T22:55:35.043Z,20.82
2018-09-17T22:58:03.749Z,20.77
2018-09-17T23:00:32.499Z,20.73
2018-09-17T23:03:01.127Z,20.69
2018-09-17T23:05:29.965Z,20.71
2018-09-17T23:07:58.649Z,20.69
2018-09-17T23:10:27.295Z,20.68
2018-09-17T23:12:55.899Z,20.67
2018-09-17T23:15:24.546Z,20.62
2018-09-17T23:17:53.404Z,20.61
2018-09-17T23:20:23.501Z,20.58
2018-09-17T23:22:52.321Z,20.55
2018-09-17T23:25:22.013Z,20.51
2018-09-17T23:27:51.869Z,20.49
2018-09-17T23:30:20.738Z,20.47
2018-09-17T23:32:49.706Z,20.46
2018-09-17T23:35:19.329Z,20.44
2018-09-17T23:37:48.225Z,20.43
2018-09-17T23:40:20.596Z,20.40
2018-09-17T23:42:54.532Z,20.41
2018-09-17T23:45:23.422Z,20.39
2018-09-17T23:47:52.258Z,20.40
2018-09-17T23:50:21.143Z,20.41
2018-09-17T23:52:50.070Z,20.40
2018-09-17T23:55:18.587Z,20.40
2018-09-17T23:57:47.857Z,20.39
